Time;durP1;ratioP1;P1;durP2;ratioP2;P2;SDS_P1;SDS_P2;PMS_P1;PMS_P2;Temp;Humidity;BMP_temperature;BMP_pressure;BME280_temperature;BME280_humidity;BME280_pressure;Samples;Min_cycle;Max_cycle;Signal;HPM_P1;HPM_P2
2023/11/09 00:01:17;;;;;;;4.10;2.95;;;8.50;99.90;;;;;;5010684;28;20468;-58
2023/11/09 00:03:43;;;;;;;5.32;2.75;;;8.40;99.90;;;;;;5012683;28;20037;-59
2023/11/09 00:06:09;;;;;;;5.82;2.80;;;8.40;99.90;;;;;;5010636;28;20097;-59
2023/11/09 00:08:34;;;;;;;9.75;2.63;;;8.40;99.90;;;;;;5012818;28;20091;-59
2023/11/09 00:11:00;;;;;;;4.88;3.10;;;8.40;99.90;;;;;;5009120;28;20032;-59
2023/11/09 00:13:29;;;;;;;4.13;2.50;;;8.40;99.90;;;;;;5012429;28;20022;-59
2023/11/09 00:15:55;;;;;;;7.97;2.70;;;8.40;99.90;;;;;;5009551;28;20380;-59
2023/11/09 00:18:21;;;;;;;3.80;2.72;;;8.40;99.90;;;;;;5010773;28;20017;-58
2023/11/09 00:20:49;;;;;;;10.20;2.97;;;8.40;99.90;;;;;;5011692;28;20017;-58
2023/11/09 00:23:15;;;;;;;6.65;3.65;;;8.40;99.90;;;;;;5008960;28;20048;-60
2023/11/09 00:25:40;;;;;;;4.88;2.75;;;8.40;99.90;;;;;;5012161;28;20029;-59
2023/11/09 00:28:07;;;;;;;7.18;3.17;;;8.40;99.90;;;;;;5010272;28;20029;-59
2023/11/09 00:30:32;;;;;;;6.55;2.85;;;8.40;99.90;;;;;;4997685;28;20535;-59
2023/11/09 00:32:58;;;;;;;6.10;2.17;;;8.40;99.90;;;;;;5007234;28;20087;-59
2023/11/09 00:35:24;;;;;;;6.22;2.70;;;8.40;99.90;;;;;;5007773;28;20149;-59
2023/11/09 00:37:53;;;;;;;4.95;2.50;;;8.40;99.90;;;;;;5008572;28;20026;-59
2023/11/09 00:40:19;;;;;;;5.93;2.80;;;8.40;99.90;;;;;;5008649;28;20463;-59
2023/11/09 00:42:44;;;;;;;6.03;3.03;;;8.30;99.90;;;;;;5009026;28;20105;-59
2023/11/09 00:45:10;;;;;;;7.82;3.00;;;8.40;99.90;;;;;;5008130;28;20243;-59
2023/11/09 00:47:35;;;;;;;7.18;2.50;;;8.30;99.90;;;;;;5008637;28;20030;-59
2023/11/09 00:50:01;;;;;;;5.22;2.75;;;8.30;99.90;;;;;;5008361;28;20018;-59
2023/11/09 00:52:27;;;;;;;11.10;2.47;;;8.30;99.90;;;;;;5008664;28;20117;-59
2023/11/09 00:54:53;;;;;;;4.35;2.15;;;8.30;99.90;;;;;;5008084;28;20030;-59
2023/11/09 00:57:23;;;;;;;5.25;3.35;;;8.40;99.90;;;;;;4999654;28;20049;-59
2023/11/09 00:59:49;;;;;;;3.75;2.50;;;8.40;99.90;;;;;;4989075;28;20022;-59
2023/11/09 01:02:15;;;;;;;5.68;2.65;;;8.40;99.90;;;;;;4988758;28;20023;-60
2023/11/09 01:04:40;;;;;;;6.13;2.45;;;8.30;99.90;;;;;;4988399;28;20037;-60
2023/11/09 01:07:08;;;;;;;5.68;2.63;;;8.40;99.90;;;;;;4990387;28;20027;-59
2023/11/09 01:09:34;;;;;;;4.88;2.70;;;8.40;99.90;;;;;;4993189;28;20065;-59
2023/11/09 01:11:59;;;;;;;5.40;2.63;;;8.40;99.90;;;;;;4993282;28;20123;-59
2023/11/09 01:14:26;;;;;;;8.02;2.50;;;8.40;99.90;;;;;;4992951;28;20026;-59
2023/11/09 01:16:51;;;;;;;10.60;3.20;;;8.40;99.90;;;;;;4993016;28;20034;-59
2023/11/09 01:19:17;;;;;;;6.72;3.17;;;8.40;99.90;;;;;;4992704;28;20023;-59
2023/11/09 01:21:42;;;;;;;5.25;3.75;;;8.40;99.90;;;;;;5000171;28;20143;-59
2023/11/09 01:24:08;;;;;;;3.83;2.97;;;8.40;99.90;;;;;;5008177;28;20093;-59
2023/11/09 01:26:34;;;;;;;5.45;3.38;;;8.40;99.90;;;;;;5011963;28;20022;-58
2023/11/09 01:29:00;;;;;;;11.20;3.42;;;8.40;99.90;;;;;;5009614;28;20345;-59
2023/11/09 01:31:25;;;;;;;5.97;3.20;;;8.40;99.90;;;;;;5002962;28;20040;-59
2023/11/09 01:33:51;;;;;;;8.25;3.10;;;8.40;99.90;;;;;;5012550;28;20030;-58
2023/11/09 01:36:17;;;;;;;7.40;3.78;;;8.40;99.90;;;;;;5000722;28;20109;-58
2023/11/09 01:38:42;;;;;;;5.60;3.22;;;8.40;99.90;;;;;;4998905;28;20049;-58
2023/11/09 01:41:09;;;;;;;7.22;3.45;;;8.40;99.90;;;;;;4999033;28;20028;-58
2023/11/09 01:43:34;;;;;;;7.82;3.58;;;8.40;99.90;;;;;;4997925;28;20010;-59
2023/11/09 01:46:04;;;;;;;5.55;3.17;;;8.40;99.90;;;;;;4999901;28;20072;-59
2023/11/09 01:48:33;;;;;;;8.68;4.25;;;8.40;99.90;;;;;;5002875;28;20026;-58
2023/11/09 01:50:59;;;;;;;8.10;3.42;;;8.40;99.90;;;;;;5011735;28;20033;-58
2023/11/09 01:53:25;;;;;;;11.50;3.53;;;8.40;99.90;;;;;;5011912;28;20025;-58
2023/11/09 01:55:51;;;;;;;10.27;3.88;;;8.40;99.90;;;;;;5006668;28;20041;-59
2023/11/09 01:58:18;;;;;;;6.45;3.97;;;8.40;99.90;;;;;;5008891;28;20022;-59
2023/11/09 02:00:45;;;;;;;5.88;3.78;;;8.40;99.90;;;;;;5011568;28;20021;-59
2023/11/09 02:03:12;;;;;;;9.80;3.47;;;8.40;99.90;;;;;;5011310;28;20106;-60
2023/11/09 02:05:38;;;;;;;11.07;4.40;;;8.40;99.90;;;;;;5011593;28;20029;-59
2023/11/09 02:08:05;;;;;;;8.60;4.20;;;8.40;99.90;;;;;;5011477;28;20101;-59
2023/11/09 02:10:33;;;;;;;11.82;4.03;;;8.40;99.90;;;;;;5011320;28;20518;-59
2023/11/09 02:13:00;;;;;;;8.82;4.28;;;8.40;99.90;;;;;;5011228;28;20037;-59
2023/11/09 02:15:25;;;;;;;11.52;3.75;;;8.40;99.90;;;;;;5008302;28;20081;-59
2023/11/09 02:17:55;;;;;;;8.05;3.63;;;8.40;99.90;;;;;;5011457;28;20040;-58
2023/11/09 02:20:21;;;;;;;6.35;3.92;;;8.40;99.90;;;;;;5010645;28;20026;-58
2023/11/09 02:22:48;;;;;;;19.42;4.05;;;8.40;99.90;;;;;;5011565;28;20391;-59
2023/11/09 02:25:15;;;;;;;10.20;4.13;;;8.40;99.90;;;;;;5006347;28;20503;-58
2023/11/09 02:27:41;;;;;;;11.40;3.85;;;8.40;99.90;;;;;;5011606;28;20108;-58
2023/11/09 02:30:07;;;;;;;11.63;4.30;;;8.40;99.90;;;;;;5011191;28;20049;-57
2023/11/09 02:32:33;;;;;;;18.73;4.93;;;8.40;99.90;;;;;;5011338;28;20038;-57
2023/11/09 02:34:59;;;;;;;14.88;4.30;;;8.40;99.90;;;;;;5006005;28;20026;-57
2023/11/09 02:37:25;;;;;;;8.45;4.05;;;8.40;99.90;;;;;;5006350;28;20037;-57
2023/11/09 02:39:56;;;;;;;9.32;4.30;;;8.40;99.90;;;;;;5011004;28;20026;-57
2023/11/09 02:42:22;;;;;;;16.45;5.18;;;8.40;99.90;;;;;;5011350;28;20068;-57
2023/11/09 02:44:48;;;;;;;9.35;4.43;;;8.40;99.90;;;;;;5010789;28;20491;-57
2023/11/09 02:47:14;;;;;;;12.93;4.75;;;8.40;99.90;;;;;;5010984;28;20029;-57
2023/11/09 02:49:41;;;;;;;11.20;4.20;;;8.30;99.90;;;;;;5010964;28;20137;-57
2023/11/09 02:52:06;;;;;;;7.72;4.78;;;8.40;99.90;;;;;;5005996;28;20558;-57
2023/11/09 02:54:32;;;;;;;12.50;4.60;;;8.40;99.90;;;;;;5008973;28;20034;-57
2023/11/09 02:56:58;;;;;;;12.52;4.75;;;8.40;99.90;;;;;;5010301;28;20117;-57
2023/11/09 02:59:24;;;;;;;10.77;5.00;;;8.40;99.90;;;;;;5010413;28;20109;-57
2023/11/09 03:01:50;;;;;;;15.93;5.03;;;8.30;99.90;;;;;;5010555;28;20022;-58
2023/11/09 03:04:17;;;;;;;9.60;4.57;;;8.30;99.90;;;;;;5008920;28;20614;-58
2023/11/09 03:06:43;;;;;;;6.70;3.72;;;8.40;99.90;;;;;;5010004;28;20044;-57
2023/11/09 03:09:11;;;;;;;7.72;4.53;;;8.40;99.90;;;;;;5010627;28;20030;-57
2023/11/09 03:11:36;;;;;;;10.18;4.80;;;8.40;99.90;;;;;;5010467;28;20359;-58
2023/11/09 03:14:02;;;;;;;8.43;4.40;;;8.40;99.90;;;;;;5008745;28;20034;-57
2023/11/09 03:16:27;;;;;;;11.70;4.35;;;8.40;99.90;;;;;;5007003;28;20030;-58
2023/11/09 03:18:54;;;;;;;5.13;3.83;;;8.40;99.90;;;;;;5009998;28;20026;-57
2023/11/09 03:21:19;;;;;;;16.60;4.88;;;8.40;99.90;;;;;;5008697;28;20044;-57
2023/11/09 03:23:47;;;;;;;12.30;3.92;;;8.40;99.90;;;;;;5010062;28;20511;-57
2023/11/09 03:26:17;;;;;;;11.18;4.30;;;8.40;99.90;;;;;;5009411;28;20101;-57
2023/11/09 03:28:42;;;;;;;7.60;4.43;;;8.30;99.90;;;;;;5009811;28;20021;-58
2023/11/09 03:31:08;;;;;;;10.00;4.85;;;8.30;99.90;;;;;;5009615;28;20022;-58
2023/11/09 03:33:33;;;;;;;10.90;4.80;;;8.30;99.90;;;;;;5009930;28;20200;-57
2023/11/09 03:36:00;;;;;;;9.02;5.00;;;8.30;99.90;;;;;;5009145;28;20029;-57
2023/11/09 03:38:25;;;;;;;8.68;4.22;;;8.30;99.90;;;;;;5009571;28;20122;-60
2023/11/09 03:40:51;;;;;;;13.43;4.82;;;8.30;99.90;;;;;;5009431;28;20121;-58
2023/11/09 03:43:17;;;;;;;11.25;5.25;;;8.30;99.90;;;;;;5009969;28;20030;-58
2023/11/09 03:45:43;;;;;;;9.82;4.53;;;8.30;99.90;;;;;;5004536;28;20036;-58
2023/11/09 03:48:09;;;;;;;8.50;4.22;;;8.30;99.90;;;;;;5001121;28;20049;-58
2023/11/09 03:50:34;;;;;;;8.25;4.15;;;8.30;99.90;;;;;;5009140;28;20022;-58
2023/11/09 03:53:00;;;;;;;13.75;4.75;;;8.30;99.90;;;;;;5009474;28;20169;-57
2023/11/09 03:55:25;;;;;;;9.43;4.38;;;8.30;99.90;;;;;;5008780;28;20030;-58
2023/11/09 03:57:51;;;;;;;10.98;4.47;;;8.30;99.90;;;;;;5009317;28;20026;-58
2023/11/09 04:00:18;;;;;;;10.38;4.30;;;8.30;99.90;;;;;;5009026;28;20083;-57
2023/11/09 04:02:44;;;;;;;8.75;3.88;;;8.30;99.90;;;;;;5009230;28;20103;-58
2023/11/09 04:05:11;;;;;;;9.00;4.07;;;8.30;99.90;;;;;;5008738;28;20133;-57
2023/11/09 04:07:41;;;;;;;8.68;3.90;;;8.30;99.90;;;;;;5009326;28;20026;-58
2023/11/09 04:10:09;;;;;;;12.02;5.43;;;8.30;99.90;;;;;;5009171;28;20026;-58
2023/11/09 04:12:38;;;;;;;8.52;4.82;;;8.30;99.90;;;;;;5009078;28;20092;-58
2023/11/09 04:15:04;;;;;;;11.82;4.50;;;8.30;99.90;;;;;;5004189;28;20414;-58
2023/11/09 04:17:33;;;;;;;10.48;3.72;;;8.20;99.90;;;;;;5007849;28;20513;-58
2023/11/09 04:19:59;;;;;;;7.85;3.88;;;8.20;99.90;;;;;;5009357;28;20018;-58
2023/11/09 04:22:25;;;;;;;11.35;4.85;;;8.20;99.90;;;;;;5009376;28;20026;-58
2023/11/09 04:24:51;;;;;;;11.05;4.22;;;8.20;99.90;;;;;;5004187;28;20169;-58
2023/11/09 04:27:17;;;;;;;13.35;4.07;;;8.20;99.90;;;;;;5005694;28;20109;-57
2023/11/09 04:29:43;;;;;;;9.18;4.13;;;8.20;99.90;;;;;;5008960;28;20430;-58
2023/11/09 04:32:09;;;;;;;15.25;4.95;;;8.30;99.90;;;;;;5009094;28;20022;-57
2023/11/09 04:34:36;;;;;;;11.55;4.07;;;8.30;99.90;;;;;;5008423;28;20032;-58
2023/11/09 04:37:01;;;;;;;9.27;4.30;;;8.30;99.90;;;;;;5008396;28;20056;-57
2023/11/09 04:39:31;;;;;;;13.02;4.32;;;8.30;99.90;;;;;;5008662;28;20443;-58
2023/11/09 04:42:01;;;;;;;12.75;4.75;;;8.20;99.90;;;;;;5008018;28;20018;-57
2023/11/09 04:44:28;;;;;;;12.27;5.50;;;8.20;99.90;;;;;;5008019;28;20040;-58
2023/11/09 04:46:57;;;;;;;9.38;4.43;;;8.20;99.90;;;;;;5008610;28;20040;-58
2023/11/09 04:49:23;;;;;;;11.48;4.15;;;8.20;99.90;;;;;;5008481;28;20126;-57
2023/11/09 04:51:51;;;;;;;12.55;5.07;;;8.20;99.90;;;;;;5008366;28;20330;-57
2023/11/09 04:54:19;;;;;;;13.23;4.63;;;8.20;99.90;;;;;;5008130;28;20498;-58
2023/11/09 04:56:53;;;;;;;12.30;4.90;;;8.20;99.90;;;;;;5008182;28;20057;-57
2023/11/09 05:07:29;;;;;;;10.40;4.30;;;8.20;99.90;;;;;;5008764;28;20091;-57
2023/11/09 05:09:56;;;;;;;10.00;4.80;;;8.20;99.90;;;;;;5008314;28;20041;-57
2023/11/09 05:12:22;;;;;;;12.38;4.45;;;8.20;99.90;;;;;;5008052;28;20026;-57
2023/11/09 05:14:47;;;;;;;11.55;4.28;;;8.10;99.90;;;;;;5002888;28;20040;-57
2023/11/09 05:17:16;;;;;;;13.25;4.68;;;8.10;99.90;;;;;;4988432;28;20054;-57
2023/11/09 05:19:43;;;;;;;15.57;5.30;;;8.10;99.90;;;;;;4988555;28;20484;-57
2023/11/09 05:22:09;;;;;;;7.95;4.47;;;8.10;99.90;;;;;;4988649;28;20101;-57
2023/11/09 05:24:39;;;;;;;10.63;4.60;;;8.10;99.90;;;;;;4988157;28;20376;-57
2023/11/09 05:27:07;;;;;;;13.40;4.53;;;8.10;99.90;;;;;;4988434;28;20022;-56
2023/11/09 05:29:33;;;;;;;15.55;4.55;;;8.10;99.90;;;;;;4988258;28;20034;-56
2023/11/09 05:32:00;;;;;;;9.75;4.72;;;8.10;99.90;;;;;;4988463;28;20105;-57
2023/11/09 05:34:25;;;;;;;11.85;4.93;;;8.10;99.90;;;;;;4988294;28;20026;-56
2023/11/09 05:36:51;;;;;;;8.52;4.90;;;8.10;99.90;;;;;;4994718;28;20096;-57
2023/11/09 05:39:18;;;;;;;11.80;4.75;;;8.10;99.90;;;;;;5008170;28;20034;-57
2023/11/09 05:41:44;;;;;;;13.68;5.47;;;8.10;99.90;;;;;;5007973;28;20026;-57
2023/11/09 05:44:10;;;;;;;8.80;4.60;;;8.00;99.90;;;;;;5007960;28;20030;-57
2023/11/09 05:46:38;;;;;;;9.93;4.75;;;8.00;99.90;;;;;;5008380;28;20500;-57
2023/11/09 05:49:04;;;;;;;10.57;4.60;;;8.10;99.90;;;;;;5004523;28;20035;-57
2023/11/09 05:51:31;;;;;;;9.30;5.30;;;8.10;99.90;;;;;;4996936;28;20033;-57
2023/11/09 05:53:57;;;;;;;9.75;4.20;;;8.00;99.90;;;;;;4999523;28;20424;-56
2023/11/09 05:56:24;;;;;;;11.77;4.90;;;8.00;99.90;;;;;;5001420;28;20117;-57
2023/11/09 05:58:51;;;;;;;8.68;3.83;;;8.00;99.90;;;;;;5008873;28;20056;-57
2023/11/09 06:01:18;;;;;;;7.65;4.03;;;8.00;99.90;;;;;;5011479;28;20117;-57
2023/11/09 06:03:43;;;;;;;12.32;4.63;;;8.00;99.90;;;;;;5003157;28;20037;-57
2023/11/09 06:06:09;;;;;;;18.65;4.95;;;7.90;99.90;;;;;;5000360;28;20443;-56
2023/11/09 06:08:35;;;;;;;13.27;4.93;;;8.00;99.90;;;;;;4999057;28;20044;-57
2023/11/09 06:11:02;;;;;;;8.15;4.40;;;8.00;99.90;;;;;;5002065;28;20018;-57
2023/11/09 06:13:28;;;;;;;12.32;4.43;;;8.00;99.90;;;;;;5002154;28;20325;-57
2023/11/09 06:15:53;;;;;;;9.15;4.28;;;7.90;99.90;;;;;;5011335;28;20125;-57
2023/11/09 06:18:19;;;;;;;11.05;4.68;;;8.00;99.90;;;;;;5011272;28;20030;-57
2023/11/09 06:20:47;;;;;;;7.22;4.78;;;7.90;99.90;;;;;;5001152;28;20018;-57
2023/11/09 06:23:13;;;;;;;18.33;4.47;;;8.00;99.90;;;;;;5009636;28;20018;-57
2023/11/09 06:25:40;;;;;;;9.52;4.18;;;8.00;99.90;;;;;;5006221;28;20026;-57
2023/11/09 06:28:05;;;;;;;16.15;4.32;;;8.00;99.90;;;;;;5006569;28;20033;-57
2023/11/09 06:30:31;;;;;;;7.35;4.00;;;8.00;99.90;;;;;;5010896;28;20053;-57
2023/11/09 06:32:56;;;;;;;10.48;4.30;;;8.00;99.90;;;;;;5010861;28;20438;-57
2023/11/09 06:35:22;;;;;;;8.43;4.22;;;8.00;99.90;;;;;;5010174;28;20502;-57
2023/11/09 06:37:50;;;;;;;11.88;4.28;;;8.00;99.90;;;;;;5010935;28;20106;-57
2023/11/09 06:40:16;;;;;;;9.27;4.03;;;8.00;99.90;;;;;;5011176;28;20036;-57
2023/11/09 06:42:43;;;;;;;6.80;3.80;;;8.10;99.90;;;;;;5011012;28;20129;-57
2023/11/09 06:45:09;;;;;;;8.13;3.80;;;8.10;99.90;;;;;;5010344;28;20030;-57
2023/11/09 06:47:40;;;;;;;8.82;4.00;;;8.10;99.90;;;;;;5009100;28;20041;-56
2023/11/09 06:50:11;;;;;;;13.57;4.15;;;8.10;99.90;;;;;;5010888;28;20376;-56
2023/11/09 06:52:41;;;;;;;6.60;3.63;;;8.10;99.90;;;;;;5010489;28;20030;-56
2023/11/09 06:55:09;;;;;;;5.25;3.60;;;8.10;99.90;;;;;;5010215;28;20112;-56
2023/11/09 06:57:36;;;;;;;8.63;3.58;;;8.10;99.90;;;;;;5009933;28;20522;-56
2023/11/09 07:00:05;;;;;;;7.95;3.45;;;8.10;99.90;;;;;;5010723;28;20344;-56
2023/11/09 07:02:32;;;;;;;7.00;3.67;;;8.10;99.90;;;;;;5007733;28;20030;-56
2023/11/09 07:04:58;;;;;;;7.20;3.30;;;8.10;99.90;;;;;;5009851;28;20022;-56
2023/11/09 07:07:23;;;;;;;6.85;3.67;;;8.20;99.90;;;;;;5010420;28;20340;-56
2023/11/09 07:09:49;;;;;;;10.95;3.95;;;8.20;99.90;;;;;;5010503;28;20052;-56
2023/11/09 07:12:14;;;;;;;7.38;3.97;;;8.20;99.90;;;;;;5010329;28;20022;-56
2023/11/09 07:14:40;;;;;;;6.38;3.58;;;8.20;99.90;;;;;;5010147;28;20056;-56
2023/11/09 07:17:06;;;;;;;9.68;3.90;;;8.10;99.90;;;;;;5010475;28;20030;-56
2023/11/09 07:19:33;;;;;;;5.95;3.33;;;8.20;99.90;;;;;;5010259;28;20049;-56
2023/11/09 07:22:00;;;;;;;5.07;3.50;;;8.20;99.90;;;;;;5010325;28;20375;-56
2023/11/09 07:24:29;;;;;;;8.43;3.88;;;8.20;99.90;;;;;;5009853;28;20022;-56
2023/11/09 07:26:55;;;;;;;7.70;4.07;;;8.20;99.90;;;;;;5009788;28;20096;-56
2023/11/09 07:29:21;;;;;;;10.73;3.92;;;8.20;99.90;;;;;;5009984;28;20109;-56
2023/11/09 07:31:46;;;;;;;11.20;4.03;;;8.20;99.90;;;;;;5010442;28;20044;-56
2023/11/09 07:34:12;;;;;;;7.55;3.22;;;8.20;99.90;;;;;;5009501;28;20057;-56
2023/11/09 07:36:37;;;;;;;8.50;3.08;;;8.30;99.90;;;;;;5009072;28;20030;-56
2023/11/09 07:39:07;;;;;;;10.02;3.47;;;8.40;99.90;;;;;;5009159;28;20402;-56
2023/11/09 07:41:32;;;;;;;5.68;2.60;;;8.40;99.90;;;;;;5009216;28;20030;-56
2023/11/09 07:43:58;;;;;;;6.35;3.10;;;8.50;99.90;;;;;;5009090;28;20079;-56
2023/11/09 07:46:24;;;;;;;7.00;2.65;;;8.50;99.90;;;;;;5005487;28;20022;-56
2023/11/09 07:48:49;;;;;;;6.10;3.47;;;8.50;99.90;;;;;;5009132;28;20495;-56
2023/11/09 07:51:15;;;;;;;9.70;2.63;;;8.40;99.90;;;;;;5009252;28;20069;-56
2023/11/09 07:53:40;;;;;;;4.63;2.53;;;8.50;99.90;;;;;;5004721;28;20450;-56
2023/11/09 07:56:06;;;;;;;6.00;2.67;;;8.50;99.90;;;;;;5004614;28;20129;-56
2023/11/09 07:58:32;;;;;;;6.55;2.78;;;8.50;99.90;;;;;;5009129;28;20020;-56
2023/11/09 08:00:58;;;;;;;3.05;2.60;;;8.50;99.90;;;;;;5009223;28;20018;-56
2023/11/09 08:03:24;;;;;;;11.30;2.95;;;8.60;99.90;;;;;;5009255;28;20010;-56
2023/11/09 08:05:49;;;;;;;7.65;2.67;;;8.60;99.90;;;;;;5008616;28;20022;-56
2023/11/09 08:08:16;;;;;;;9.98;2.58;;;8.60;99.90;;;;;;5009244;28;20033;-56
2023/11/09 08:10:42;;;;;;;5.57;2.80;;;8.70;99.90;;;;;;5009189;28;20025;-56
2023/11/09 08:13:08;;;;;;;6.68;2.60;;;8.60;99.90;;;;;;5009224;28;20446;-56
2023/11/09 08:15:36;;;;;;;3.55;2.47;;;8.60;99.90;;;;;;5006625;28;20046;-56
2023/11/09 08:18:02;;;;;;;9.98;2.53;;;8.60;99.90;;;;;;5008051;28;20026;-56
2023/11/09 08:20:29;;;;;;;5.22;2.45;;;8.70;99.90;;;;;;5008684;28;20333;-55
2023/11/09 08:22:56;;;;;;;15.25;2.85;;;8.70;99.90;;;;;;5008942;28;20471;-55
2023/11/09 08:25:23;;;;;;;7.35;2.45;;;8.70;99.90;;;;;;5008297;28;20037;-55
2023/11/09 08:27:51;;;;;;;4.05;2.55;;;8.80;99.90;;;;;;5008728;28;20095;-55
2023/11/09 08:30:19;;;;;;;7.38;2.63;;;8.80;99.90;;;;;;5008615;28;20132;-55
2023/11/09 08:32:48;;;;;;;3.25;2.20;;;8.90;99.90;;;;;;5008502;28;20065;-55
2023/11/09 08:35:13;;;;;;;7.25;2.63;;;9.10;99.90;;;;;;5008535;28;20112;-55
2023/11/09 08:37:42;;;;;;;2.47;1.88;;;9.20;99.90;;;;;;5008757;28;20610;-55
2023/11/09 08:40:24;;;;;;;5.50;2.08;;;9.40;99.90;;;;;;5004255;28;20030;-55
2023/11/09 08:42:49;;;;;;;3.30;1.83;;;9.40;99.90;;;;;;5002282;28;20018;-55
2023/11/09 08:45:21;;;;;;;5.43;1.88;;;9.50;99.90;;;;;;5007736;28;20383;-55
2023/11/09 08:47:51;;;;;;;5.13;1.75;;;9.50;99.90;;;;;;5008626;28;20071;-55
2023/11/09 08:50:17;;;;;;;2.47;1.63;;;9.70;99.90;;;;;;5008428;28;20048;-55
2023/11/09 08:52:44;;;;;;;3.60;1.75;;;9.70;99.90;;;;;;5003800;28;20039;-55
2023/11/09 08:55:10;;;;;;;3.92;2.10;;;9.80;99.90;;;;;;5003950;28;20431;-55
2023/11/09 08:57:37;;;;;;;6.97;1.90;;;9.80;99.90;;;;;;5008497;28;20038;-55
2023/11/09 09:00:06;;;;;;;2.28;1.58;;;9.80;99.90;;;;;;5008463;28;20030;-55
2023/11/09 09:02:32;;;;;;;3.22;2.00;;;9.90;99.90;;;;;;5008267;28;20028;-56
2023/11/09 09:05:01;;;;;;;6.43;1.95;;;9.90;99.90;;;;;;5007755;28;20036;-56
2023/11/09 09:07:27;;;;;;;4.25;1.95;;;10.00;99.90;;;;;;5008572;28;20365;-56
2023/11/09 09:09:53;;;;;;;3.20;1.70;;;10.00;99.90;;;;;;5008774;28;20116;-56
2023/11/09 09:12:20;;;;;;;4.45;1.67;;;10.00;99.90;;;;;;5006198;28;20068;-56
2023/11/09 09:14:47;;;;;;;2.47;1.52;;;10.10;99.90;;;;;;5007291;28;20148;-56
2023/11/09 09:17:15;;;;;;;5.07;1.83;;;10.20;99.90;;;;;;5007759;28;20657;-56
2023/11/09 09:19:41;;;;;;;2.80;1.70;;;10.20;99.90;;;;;;5008106;28;20048;-56
2023/11/09 09:22:09;;;;;;;2.72;1.30;;;10.20;99.90;;;;;;5003524;28;20084;-55
2023/11/09 09:24:39;;;;;;;2.22;1.60;;;10.20;99.90;;;;;;5007193;28;20017;-55
2023/11/09 09:27:06;;;;;;;4.55;1.70;;;10.20;99.90;;;;;;5007551;28;20242;-55
2023/11/09 09:29:32;;;;;;;2.65;1.70;;;10.30;99.90;;;;;;5011856;28;20037;-55
2023/11/09 09:31:58;;;;;;;3.22;1.60;;;10.30;99.90;;;;;;5012009;28;20025;-55
2023/11/09 09:34:25;;;;;;;4.43;1.65;;;10.30;99.90;;;;;;5012262;28;20028;-55
2023/11/09 09:36:51;;;;;;;3.28;1.58;;;10.30;99.90;;;;;;5011700;28;20117;-55
2023/11/09 09:39:16;;;;;;;6.50;1.50;;;10.30;99.90;;;;;;5011628;28;20372;-56
2023/11/09 09:41:50;;;;;;;1.55;1.33;;;10.40;99.90;;;;;;5011743;28;20025;-55
2023/11/09 09:44:17;;;;;;;1.73;1.13;;;10.40;99.90;;;;;;5011404;28;20133;-56
2023/11/09 09:46:43;;;;;;;4.57;1.88;;;10.40;99.90;;;;;;5011431;28;20093;-55
2023/11/09 09:49:18;;;;;;;3.53;1.30;;;10.50;99.90;;;;;;5011950;28;20218;-55
2023/11/09 09:51:44;;;;;;;1.92;1.20;;;10.50;99.90;;;;;;5011628;28;20498;-55
2023/11/09 09:54:10;;;;;;;2.30;1.70;;;10.40;99.90;;;;;;5011767;28;20033;-56
2023/11/09 09:56:40;;;;;;;4.82;1.50;;;10.40;99.90;;;;;;5011518;28;20014;-55
2023/11/09 09:59:09;;;;;;;2.65;1.42;;;10.30;99.90;;;;;;5012310;28;20025;-55
2023/11/09 10:01:40;;;;;;;3.08;1.55;;;10.20;99.90;;;;;;5011943;28;20367;-55
2023/11/09 10:04:06;;;;;;;2.35;1.52;;;10.20;99.90;;;;;;5012086;28;20033;-55
2023/11/09 10:06:32;;;;;;;2.00;1.48;;;10.10;99.90;;;;;;5011217;28;20030;-55
2023/11/09 10:08:58;;;;;;;2.45;1.70;;;10.10;99.90;;;;;;5011649;28;20558;-55
2023/11/09 10:11:24;;;;;;;1.75;1.20;;;10.00;99.90;;;;;;5011344;28;20026;-55
2023/11/09 10:13:50;;;;;;;3.28;1.50;;;9.90;99.90;;;;;;5011277;28;20102;-55
2023/11/09 10:16:18;;;;;;;4.72;1.58;;;9.90;99.90;;;;;;5010596;28;20052;-55
2023/11/09 10:18:47;;;;;;;3.70;1.27;;;9.90;99.90;;;;;;5011296;28;20079;-56
2023/11/09 10:21:12;;;;;;;3.35;2.17;;;9.80;99.90;;;;;;5011413;28;20037;-55
2023/11/09 10:23:39;;;;;;;4.15;1.20;;;9.80;99.90;;;;;;5011202;28;20022;-56
2023/11/09 10:26:11;;;;;;;2.47;1.88;;;9.70;99.90;;;;;;5010790;28;20053;-55
2023/11/09 10:28:38;;;;;;;3.88;1.67;;;9.70;99.90;;;;;;5009791;28;20534;-55
2023/11/09 10:31:04;;;;;;;5.35;2.95;;;9.70;99.90;;;;;;5006809;28;20054;-55
2023/11/09 10:33:30;;;;;;;4.78;1.92;;;9.70;99.90;;;;;;5009867;28;20021;-56
2023/11/09 10:35:56;;;;;;;2.38;1.50;;;9.60;99.90;;;;;;5010646;28;20017;-56
2023/11/09 10:38:25;;;;;;;3.55;1.77;;;9.60;99.90;;;;;;5011175;28;20049;-56
2023/11/09 10:40:57;;;;;;;7.05;2.55;;;9.60;99.90;;;;;;5010643;28;20018;-56
2023/11/09 10:43:24;;;;;;;1.48;1.38;;;9.60;99.90;;;;;;5011188;28;20018;-56
2023/11/09 10:45:52;;;;;;;3.55;1.70;;;9.60;99.90;;;;;;5010351;28;20084;-56
2023/11/09 10:48:18;;;;;;;4.75;1.58;;;9.60;99.90;;;;;;5011121;28;20267;-56
2023/11/09 10:50:47;;;;;;;2.47;1.35;;;9.70;99.90;;;;;;5011037;28;20038;-56
2023/11/09 10:53:26;;;;;;;6.57;1.98;;;9.70;99.90;;;;;;5011028;28;20176;-57
2023/11/09 10:55:59;;;;;;;4.32;1.55;;;9.70;99.90;;;;;;5005571;28;20558;-56
2023/11/09 10:58:26;;;;;;;4.00;1.63;;;9.70;99.90;;;;;;5008912;28;20022;-56
2023/11/09 11:00:51;;;;;;;3.33;1.60;;;9.70;99.90;;;;;;5010844;28;20079;-56
2023/11/09 11:03:25;;;;;;;3.30;1.50;;;9.80;99.90;;;;;;5010955;28;20047;-56
2023/11/09 11:06:16;;;;;;;1.77;1.38;;;9.80;99.90;;;;;;5010432;28;20026;-56
2023/11/09 11:08:44;;;;;;;4.28;1.55;;;9.70;99.90;;;;;;5010623;28;20077;-56
2023/11/09 11:11:16;;;;;;;4.18;1.85;;;9.70;99.90;;;;;;5010521;28;20022;-56
2023/11/09 11:13:48;;;;;;;3.13;1.85;;;9.80;99.90;;;;;;5010588;28;20021;-56
2023/11/09 11:16:20;;;;;;;5.03;1.83;;;9.70;99.90;;;;;;5010056;28;20097;-56
2023/11/09 11:18:57;;;;;;;2.13;1.52;;;9.80;99.90;;;;;;5010491;28;20188;-56
2023/11/09 11:21:41;;;;;;;4.72;1.52;;;9.90;99.90;;;;;;5002253;28;20304;-57
2023/11/09 11:24:23;;;;;;;2.10;1.50;;;9.90;99.90;;;;;;5010394;28;20110;-57
2023/11/09 11:27:30;;;;;;;1.55;1.38;;;10.00;99.90;;;;;;5010081;28;20369;-56
2023/11/09 11:29:56;;;;;;;3.80;1.70;;;10.00;99.90;;;;;;4994608;28;20436;-56
2023/11/09 11:32:22;;;;;;;2.95;1.45;;;10.10;99.90;;;;;;5009701;28;20065;-57
2023/11/09 11:34:54;;;;;;;2.72;1.50;;;10.10;99.90;;;;;;5009555;28;20101;-57
2023/11/09 11:37:26;;;;;;;2.65;1.70;;;10.20;99.90;;;;;;5009574;28;20091;-57
2023/11/09 11:39:53;;;;;;;2.83;1.40;;;10.30;99.90;;;;;;5010366;28;20022;-56
2023/11/09 11:42:22;;;;;;;2.00;1.52;;;10.40;99.90;;;;;;5009468;28;20029;-56
2023/11/09 11:44:55;;;;;;;4.68;1.20;;;10.30;99.90;;;;;;5004588;28;20457;-56
2023/11/09 11:47:23;;;;;;;2.50;1.55;;;10.30;99.90;;;;;;4998356;28;20117;-56
2023/11/09 11:49:50;;;;;;;1.80;1.23;;;10.30;99.90;;;;;;4989992;28;20022;-57
2023/11/09 11:52:21;;;;;;;3.60;1.75;;;10.30;99.90;;;;;;4989798;28;20026;-56
2023/11/09 11:54:46;;;;;;;1.48;1.38;;;10.30;99.90;;;;;;4989679;28;20101;-57
2023/11/09 11:57:13;;;;;;;2.42;1.42;;;10.30;99.90;;;;;;5001460;28;20460;-56
2023/11/09 11:59:43;;;;;;;2.50;1.35;;;10.30;99.90;;;;;;5009666;28;20049;-56
2023/11/09 12:02:12;;;;;;;2.38;1.42;;;10.40;99.90;;;;;;5009390;28;20018;-57
2023/11/09 12:04:50;;;;;;;3.78;1.70;;;10.40;99.90;;;;;;5009035;28;20511;-57
2023/11/09 12:07:20;;;;;;;2.72;1.58;;;10.50;99.90;;;;;;5004928;28;20088;-57
2023/11/09 12:09:49;;;;;;;1.73;1.55;;;10.50;99.90;;;;;;5009799;28;20014;-57
2023/11/09 12:12:15;;;;;;;3.55;1.25;;;10.50;99.90;;;;;;5009280;28;20033;-57
2023/11/09 12:14:46;;;;;;;4.35;1.38;;;10.50;99.90;;;;;;5009146;28;20026;-57
2023/11/09 12:17:13;;;;;;;2.63;1.80;;;10.50;99.90;;;;;;5009508;28;20018;-57
2023/11/09 12:19:41;;;;;;;3.40;1.55;;;10.50;99.90;;;;;;5008899;28;20014;-57
2023/11/09 12:22:07;;;;;;;2.50;1.60;;;10.50;99.90;;;;;;5009473;28;20078;-56
2023/11/09 12:24:35;;;;;;;5.45;1.88;;;10.50;99.90;;;;;;5006861;28;20038;-57
2023/11/09 12:27:06;;;;;;;2.45;1.70;;;10.50;99.90;;;;;;5004413;28;20034;-56
2023/11/09 12:29:33;;;;;;;2.63;1.52;;;10.60;99.90;;;;;;5008169;28;20025;-57
2023/11/09 12:31:59;;;;;;;2.95;1.63;;;10.60;99.90;;;;;;5009464;28;20486;-57
2023/11/09 12:34:25;;;;;;;3.80;1.88;;;10.60;99.90;;;;;;5008741;28;20030;-57
2023/11/09 12:36:51;;;;;;;2.72;1.92;;;10.60;99.90;;;;;;5003606;28;20056;-57
2023/11/09 12:41:55;;;;;;;3.28;2.20;;;10.60;99.90;;;;;;5009015;28;20105;-57
2023/11/09 12:44:24;;;;;;;2.33;1.60;;;10.60;99.90;;;;;;5007474;28;20030;-57
2023/11/09 12:46:53;;;;;;;3.05;1.80;;;10.60;99.90;;;;;;5007615;28;20034;-57
2023/11/09 12:49:21;;;;;;;2.50;1.70;;;10.60;99.90;;;;;;5008775;28;20056;-57
2023/11/09 12:51:47;;;;;;;3.78;1.73;;;10.50;99.90;;;;;;5009004;28;20566;-57
2023/11/09 12:54:13;;;;;;;3.78;2.08;;;10.50;99.90;;;;;;5003985;28;20034;-57
2023/11/09 12:56:39;;;;;;;2.47;1.95;;;10.50;99.90;;;;;;4995394;28;20444;-57
2023/11/09 12:59:11;;;;;;;2.03;1.63;;;10.50;99.90;;;;;;5004122;28;20303;-57
2023/11/09 13:01:37;;;;;;;3.38;1.92;;;10.50;99.90;;;;;;5008613;28;20018;-57
2023/11/09 13:04:02;;;;;;;4.68;1.80;;;10.50;99.90;;;;;;5014111;28;20042;-57